»·PEaware :: N6999J KSBA-KSBP

N6999J :: KSBA-KSBP

FLIGHT INFORMATION

Flight Status: Arrived
Operator: Privately registered:
United States
More flights under this callsign
Pilot: Bryan N. (13862)
Aircraft: PIPER PA-28R-201 ARROW
(P28R)
More flights by this aircraft type
Origin: KSBA Santa Barbara Mun
United States
Destination: KSBP San Luis Co Regl
United States
More flights between these airports :: More routes between these airports
Route: GVO V27 MQO
File this flight plan on PilotEdge
Remarks: Simulating LIFR conditions with real world winds
Altitude:
(Current/Filed)
6,000ft
Speed:
(Current/Filed)
145kts
Departed: 03-Sep-18 11:06 AM
Arrived: 03-Sep-18 12:22 PM
Distance/Time
Traveled:
62nm/1:15
Distance/Time
To Go:
Arrived

Flight Plot

Page will automatically refresh every two minutes.


Map Options




Map Legend


Flown Route
Filed Route
Departure Airport
Arrival Airport
Navaid (VOR, NDB)
Fix

Horizontal Profiles

Position Reports

Time Latitude Longitude Heading Altitude Ground
Speed
03-Sep-18 10:43 34.432251 -119.837096 339 13ft 0kts
03-Sep-18 10:44 34.432251 -119.837096 339 13ft 0kts
03-Sep-18 10:45 34.432251 -119.837096 339 13ft 0kts
03-Sep-18 10:46 34.432251 -119.837096 339 13ft 0kts
03-Sep-18 10:47 34.432251 -119.837096 339 13ft 0kts
03-Sep-18 10:48 34.432251 -119.837096 339 13ft 0kts
03-Sep-18 10:49 34.432251 -119.837096 339 13ft 0kts
03-Sep-18 10:50 34.432251 -119.837096 339 13ft 0kts
03-Sep-18 10:51 34.432251 -119.837096 339 13ft 0kts
03-Sep-18 10:52 34.432252 -119.837096 339 13ft 0kts
03-Sep-18 10:53 34.432254 -119.837097 339 13ft 0kts
03-Sep-18 10:54 34.432258 -119.837099 339 13ft 0kts
03-Sep-18 10:55 34.432261 -119.837100 339 13ft 0kts
03-Sep-18 10:56 34.432280 -119.837109 339 13ft 1kts
03-Sep-18 10:57 34.432026 -119.836992 159 13ft 0kts
03-Sep-18 10:58 34.431859 -119.835346 180 13ft 5kts
03-Sep-18 10:59 34.429436 -119.835241 177 13ft 8kts
03-Sep-18 11:00 34.428584 -119.835121 193 13ft 0kts
03-Sep-18 11:02 34.428582 -119.835121 193 13ft 0kts
03-Sep-18 11:03 34.428578 -119.835123 193 13ft 0kts
03-Sep-18 11:04 34.428571 -119.835125 193 13ft 0kts
03-Sep-18 11:05 34.428569 -119.835125 193 13ft 0kts
03-Sep-18 11:06 34.428566 -119.835126 193 13ft 0kts
03-Sep-18 11:07 34.427871 -119.836471 268 13ft 37kts
03-Sep-18 11:08 34.426619 -119.864677 264 681ft 104kts
03-Sep-18 11:09 34.424678 -119.900036 264 1733ft 102kts
03-Sep-18 11:10 34.429279 -119.933427 307 2580ft 105kts
03-Sep-18 11:11 34.447787 -119.961318 308 3463ft 105kts
03-Sep-18 11:12 34.466256 -119.989722 309 4294ft 108kts
03-Sep-18 11:13 34.484857 -120.018611 309 5192ft 111kts
03-Sep-18 11:14 34.503797 -120.048225 310 5897ft 111kts
03-Sep-18 11:15 34.523948 -120.081434 306 6170ft 134kts
03-Sep-18 11:16 34.552840 -120.113554 325 6084ft 149kts
03-Sep-18 11:17 34.586380 -120.143386 325 6057ft 149kts
03-Sep-18 11:18 34.620262 -120.174100 324 6133ft 156kts
03-Sep-18 11:19 34.654834 -120.206055 324 5991ft 154kts
03-Sep-18 11:20 34.688637 -120.237133 323 5989ft 149kts
03-Sep-18 11:21 34.721888 -120.267307 324 6005ft 148kts
03-Sep-18 11:22 34.754808 -120.297627 324 6025ft 148kts
03-Sep-18 11:23 34.787809 -120.327920 324 6042ft 148kts
03-Sep-18 11:24 34.820644 -120.358757 323 6064ft 149kts
03-Sep-18 11:25 34.853586 -120.389282 323 6078ft 149kts
03-Sep-18 11:26 34.886682 -120.419962 326 6153ft 149kts
03-Sep-18 11:27 34.919556 -120.450705 323 6161ft 149kts
03-Sep-18 11:28 34.952073 -120.482124 325 6172ft 149kts
03-Sep-18 11:29 34.985446 -120.512753 324 6132ft 152kts
03-Sep-18 11:30 35.019179 -120.544098 324 6006ft 151kts
03-Sep-18 11:31 35.052367 -120.573870 325 6008ft 147kts
03-Sep-18 11:32 35.085176 -120.604690 324 5779ft 148kts
03-Sep-18 11:33 35.117722 -120.635564 323 5568ft 147kts
03-Sep-18 11:34 35.150667 -120.665575 324 5367ft 147kts
03-Sep-18 11:35 35.182952 -120.695920 322 5182ft 146kts
03-Sep-18 11:36 35.215370 -120.726691 322 4898ft 146kts
03-Sep-18 11:37 35.246877 -120.758271 318 4570ft 146kts
03-Sep-18 11:38 35.257786 -120.805414 279 4082ft 149kts
03-Sep-18 11:39 35.273931 -120.848891 319 3590ft 143kts
03-Sep-18 11:40 35.299098 -120.881504 270 3484ft 132kts
03-Sep-18 11:41 35.272274 -120.879875 119 3232ft 138kts
03-Sep-18 11:42 35.264481 -120.834761 100 2982ft 134kts
03-Sep-18 11:43 35.257376 -120.791108 100 2834ft 125kts
03-Sep-18 11:44 35.251422 -120.750154 98 2727ft 118kts
03-Sep-18 11:45 35.246501 -120.713616 101 2447ft 108kts
03-Sep-18 11:46 35.240989 -120.677809 104 1820ft 106kts
03-Sep-18 11:47 35.236616 -120.642293 99 1228ft 107kts
03-Sep-18 11:48 35.210541 -120.635207 182 2253ft 108kts
03-Sep-18 11:48 35.184298 -120.636138 181 3098ft 117kts
03-Sep-18 11:50 35.146387 -120.641301 215 3916ft 124kts
03-Sep-18 11:51 35.155810 -120.675874 325 4037ft 140kts
03-Sep-18 11:51 35.184373 -120.692296 21 4148ft 139kts
03-Sep-18 11:52 35.184136 -120.648917 109 4185ft 143kts
03-Sep-18 11:54 35.167100 -120.594442 109 4101ft 149kts
03-Sep-18 11:54 35.154538 -120.554881 109 4045ft 149kts
03-Sep-18 11:55 35.140497 -120.507360 108 4002ft 144kts
03-Sep-18 11:56 35.126879 -120.462148 108 4080ft 139kts
03-Sep-18 11:58 35.101724 -120.418197 140 4116ft 140kts
03-Sep-18 11:58 35.076206 -120.391863 137 3931ft 148kts
03-Sep-18 11:59 35.048289 -120.402536 284 3407ft 144kts
03-Sep-18 12:00 35.081749 -120.411908 5 3281ft 131kts
03-Sep-18 12:01 35.110029 -120.432921 319 3274ft 115kts
03-Sep-18 12:02 35.132634 -120.462586 304 3034ft 123kts
03-Sep-18 12:03 35.152669 -120.495745 306 2851ft 114kts
03-Sep-18 12:04 35.170276 -120.524813 305 2805ft 102kts
03-Sep-18 12:05 35.186759 -120.552716 303 2336ft 100kts
03-Sep-18 12:06 35.203022 -120.580820 301 1652ft 102kts
03-Sep-18 12:07 35.218831 -120.608551 302 1035ft 90kts
03-Sep-18 12:08 35.234667 -120.636752 301 1702ft 108kts
03-Sep-18 12:09 35.252119 -120.667934 298 2761ft 110kts
03-Sep-18 12:10 35.260067 -120.705035 284 3612ft 112kts
03-Sep-18 12:11 35.266470 -120.745689 280 4091ft 133kts
03-Sep-18 12:12 35.274691 -120.794090 284 4054ft 151kts
03-Sep-18 12:13 35.287508 -120.841829 304 4023ft 145kts
03-Sep-18 12:14 35.310098 -120.882952 304 4005ft 145kts
03-Sep-18 12:15 35.339121 -120.897859 60 3982ft 142kts
03-Sep-18 12:16 35.341533 -120.847601 95 3295ft 148kts
03-Sep-18 12:17 35.329455 -120.802783 125 2933ft 127kts
03-Sep-18 12:18 35.311162 -120.770888 125 2694ft 104kts
03-Sep-18 12:19 35.294312 -120.741296 125 2020ft 105kts
03-Sep-18 12:20 35.277741 -120.712198 127 1486ft 102kts
03-Sep-18 12:21 35.261894 -120.684090 126 971ft 97kts
03-Sep-18 12:22 35.246231 -120.656707 126 416ft 96kts
03-Sep-18 12:23 35.236298 -120.639174 123 215ft 16kts
03-Sep-18 12:24 35.236214 -120.637066 302 215ft 8kts

Navigation Log

Ident Type
1. KSBA Airport
2. GVO Navaid
3. AFOXY Fix
4. ORCUT Fix
5. FABEG Fix
6. NINOO Fix
7. AVILA Fix
8. MQO Navaid
9. KSBP Airport